createdAt,value
2019-06-26T00:03:17.725Z,6.88
2019-06-26T00:06:47.847Z,8.33
2019-06-26T00:10:18.196Z,10.66
2019-06-26T00:13:48.223Z,10.64
2019-06-26T00:17:18.352Z,6.94
2019-06-26T00:20:48.391Z,9.59
2019-06-26T00:24:18.611Z,6.5
2019-06-26T00:27:48.713Z,11.12
2019-06-26T00:31:18.960Z,9.91
2019-06-26T00:34:49.159Z,11.35
2019-06-26T00:38:19.423Z,8.27
2019-06-26T00:41:49.521Z,11.24
2019-06-26T00:45:19.706Z,11.01
2019-06-26T00:48:49.872Z,10.4
2019-06-26T00:52:20.022Z,10.5
2019-06-26T00:55:50.218Z,10.04
2019-06-26T00:59:20.462Z,9.16
2019-06-26T01:00:15.372Z,13.22
2019-06-26T01:03:45.508Z,10.18
2019-06-26T01:07:15.623Z,10.64
2019-06-26T01:10:45.679Z,7.08
2019-06-26T01:14:15.831Z,9.99
2019-06-26T01:17:45.899Z,9.81
2019-06-26T01:21:16.011Z,11.03
2019-06-26T01:24:46.213Z,8.34
2019-06-26T01:28:16.346Z,6.17
2019-06-26T01:31:46.577Z,10.66
2019-06-26T01:35:16.616Z,11.11
2019-06-26T01:38:46.764Z,8.01
2019-06-26T01:42:16.975Z,10.38
2019-06-26T01:45:47.083Z,7.96
2019-06-26T01:49:17.190Z,7.24
2019-06-26T01:52:47.187Z,10.54
2019-06-26T01:56:17.451Z,13.25
2019-06-26T01:59:47.478Z,10.05
2019-06-26T02:03:17.556Z,10.91
2019-06-26T02:06:47.708Z,11.79
2019-06-26T02:10:18.081Z,10.74
2019-06-26T02:13:48.122Z,10.4
2019-06-26T02:17:18.234Z,10.64
2019-06-26T02:20:48.191Z,10.4
2019-06-26T02:24:18.299Z,12.06
2019-06-26T02:27:48.456Z,11.65
2019-06-26T02:31:18.618Z,11.12
2019-06-26T02:34:48.803Z,11.53
2019-06-26T02:38:18.966Z,10.66
2019-06-26T02:41:49.079Z,11.26
2019-06-26T02:45:19.220Z,10.43
2019-06-26T02:48:49.268Z,9.3
2019-06-26T02:52:19.451Z,9.84
2019-06-26T02:55:49.499Z,9.81
2019-06-26T02:59:19.625Z,11.66
2019-06-26T03:00:14.988Z,11.91
2019-06-26T03:03:45.082Z,8.28
2019-06-26T03:07:15.102Z,10.65
2019-06-26T03:10:45.164Z,9.68
2019-06-26T03:14:15.233Z,10.31
2019-06-26T03:17:54.989Z,12.25
2019-06-26T03:21:25.906Z,11.35
2019-06-26T03:24:56.040Z,10.45
2019-06-26T03:28:26.284Z,10.55
2019-06-26T03:31:56.397Z,11.6
2019-06-26T03:35:26.473Z,9
2019-06-26T03:38:56.639Z,11.09
2019-06-26T03:42:26.696Z,10.05
2019-06-26T03:45:56.833Z,11.06
2019-06-26T03:49:26.980Z,10.11
2019-06-26T03:52:57.045Z,11.11
2019-06-26T03:56:27.196Z,11.98
2019-06-26T03:59:57.272Z,11.88
2019-06-26T04:03:27.420Z,11.19
2019-06-26T04:06:57.421Z,10.01
2019-06-26T04:10:27.651Z,12.48
2019-06-26T04:13:57.753Z,13.01
2019-06-26T04:17:27.942Z,6.54
2019-06-26T04:20:57.984Z,10.32
2019-06-26T04:24:28.138Z,9.21
2019-06-26T04:27:58.239Z,12.39
2019-06-26T04:31:28.557Z,13.41
2019-06-26T04:34:58.693Z,11.96
2019-06-26T04:38:30.090Z,10.98
2019-06-26T04:42:00.202Z,11.8
2019-06-26T04:45:30.389Z,11.49
2019-06-26T04:49:00.514Z,12.6
2019-06-26T04:52:30.664Z,11.54
2019-06-26T04:56:00.810Z,11.65
2019-06-26T04:59:31.048Z,5.9
2019-06-26T05:00:16.350Z,12
2019-06-26T05:03:46.439Z,11.05
2019-06-26T05:07:16.574Z,9.18
2019-06-26T05:10:46.801Z,10.55
2019-06-26T05:14:16.910Z,11.47
2019-06-26T05:17:47.069Z,9.88
2019-06-26T05:21:17.189Z,10.48
2019-06-26T05:24:47.377Z,10.8
2019-06-26T05:28:17.522Z,10.52
2019-06-26T05:31:47.691Z,9.75
2019-06-26T05:35:17.982Z,11.55
2019-06-26T05:38:48.032Z,10.68
2019-06-26T05:42:18.204Z,9.79
2019-06-26T05:45:48.266Z,9.2
2019-06-26T05:49:18.501Z,8.82
2019-06-26T05:52:49.772Z,10.72
2019-06-26T05:56:19.918Z,9.7
2019-06-26T05:59:50.031Z,10.15
2019-06-26T06:03:27.664Z,9.81
2019-06-26T06:06:57.771Z,8.99
2019-06-26T06:10:27.804Z,10.07
2019-06-26T06:13:57.894Z,9.82
2019-06-26T06:17:31.192Z,8.56
2019-06-26T06:21:01.317Z,9.9
2019-06-26T06:24:31.433Z,9.75
2019-06-26T06:28:01.701Z,9.52
2019-06-26T06:31:31.858Z,9.07
2019-06-26T06:35:02.210Z,8.28
2019-06-26T06:38:32.365Z,9.51
2019-06-26T06:42:02.466Z,8.75
2019-06-26T06:45:32.592Z,9.19
2019-06-26T06:49:02.919Z,7.81
2019-06-26T06:52:33.062Z,7.3
2019-06-26T06:56:03.149Z,7.82
2019-06-26T06:59:33.208Z,7.53
2019-06-26T07:00:17.503Z,8.46
2019-06-26T07:03:47.685Z,6.31
2019-06-26T07:07:17.679Z,6.11
2019-06-26T07:10:47.791Z,6.99
2019-06-26T07:14:17.870Z,6.86
2019-06-26T07:17:48.014Z,5.2
2019-06-26T07:21:18.158Z,5.22
2019-06-26T07:24:48.303Z,5.42
2019-06-26T07:28:18.352Z,10.05
2019-06-26T07:31:48.457Z,5.45
2019-06-26T07:35:18.529Z,5
2019-06-26T07:38:48.794Z,4.72
2019-06-26T07:42:18.885Z,5.79
2019-06-26T07:45:48.953Z,4.95
2019-06-26T07:49:19.071Z,5.65
2019-06-26T07:52:49.208Z,5.58
2019-06-26T07:56:19.365Z,5
2019-06-26T07:59:50.785Z,5.51
2019-06-26T08:03:20.850Z,5.39
2019-06-26T08:06:55.093Z,6.85
2019-06-26T08:10:25.258Z,5.54
2019-06-26T08:13:55.392Z,5.86
2019-06-26T08:17:25.634Z,6.4
2019-06-26T08:24:30.853Z,6.44
2019-06-26T08:28:00.918Z,6.1
2019-06-26T08:31:31.070Z,6.08
2019-06-26T08:35:01.205Z,6.28
2019-06-26T08:38:31.323Z,6.16
2019-06-26T08:42:01.556Z,5.84
2019-06-26T08:45:31.653Z,6.29
2019-06-26T08:49:01.859Z,6.65
2019-06-26T08:52:31.957Z,6.55
2019-06-26T08:56:02.218Z,6.1
2019-06-26T08:59:32.472Z,5.16
2019-06-26T09:00:17.150Z,6
2019-06-26T09:03:47.364Z,5.24
2019-06-26T09:07:17.539Z,5.57
2019-06-26T09:10:47.620Z,4.98
2019-06-26T09:14:17.825Z,5.78
2019-06-26T09:17:48.021Z,6.32
2019-06-26T09:21:18.012Z,6.09
2019-06-26T09:24:48.094Z,6.28
2019-06-26T09:28:18.258Z,5.89
2019-06-26T09:31:48.387Z,5.66
2019-06-26T09:35:18.528Z,5.07
2019-06-26T09:38:48.665Z,5.6
2019-06-26T09:42:19.832Z,5.64
2019-06-26T09:45:50.389Z,5.05
2019-06-26T09:49:20.443Z,5.36
2019-06-26T09:52:50.571Z,5.11
2019-06-26T09:56:20.780Z,5.19
2019-06-26T09:59:50.927Z,5.93
2019-06-26T10:03:22.311Z,5.28
2019-06-26T10:06:52.530Z,4.91
2019-06-26T10:10:22.661Z,5.19
2019-06-26T10:13:52.749Z,5.34
2019-06-26T10:17:22.834Z,5.97
2019-06-26T10:20:53.005Z,5.35
2019-06-26T10:24:26.811Z,6.29
2019-06-26T10:27:56.938Z,5.22
2019-06-26T10:31:27.016Z,4.97
2019-06-26T10:34:57.098Z,5.1
2019-06-26T10:38:27.163Z,5.78
2019-06-26T10:41:58.468Z,5.59
2019-06-26T10:45:28.481Z,4.61
2019-06-26T10:48:58.608Z,4.79
2019-06-26T10:52:28.655Z,4.45
2019-06-26T10:55:58.800Z,5.81
2019-06-26T10:59:28.890Z,5.43
2019-06-26T11:00:17.033Z,6.4
2019-06-26T11:03:47.176Z,5.59
2019-06-26T11:07:17.326Z,5.17
2019-06-26T11:10:47.496Z,5.81
2019-06-26T11:14:17.625Z,5.07
2019-06-26T11:17:47.793Z,5.39
2019-06-26T11:21:18.326Z,5.26
2019-06-26T11:24:48.505Z,5.88
2019-06-26T11:28:18.681Z,5.75
2019-06-26T11:31:48.738Z,5.72
2019-06-26T11:35:19.113Z,5.86
2019-06-26T11:38:49.339Z,6.14
2019-06-26T11:42:19.483Z,5.79
2019-06-26T11:45:49.481Z,5.09
2019-06-26T11:49:20.900Z,5.85
2019-06-26T11:52:51.095Z,5.34
2019-06-26T11:56:21.503Z,5.9
2019-06-26T11:59:51.794Z,5.15
2019-06-26T12:03:21.906Z,5.97
2019-06-26T12:06:52.127Z,4.91
2019-06-26T12:10:22.378Z,5.61
2019-06-26T12:13:52.644Z,5.5
2019-06-26T12:17:22.817Z,5.14
2019-06-26T12:20:54.253Z,5.76
2019-06-26T12:24:26.590Z,5.04
2019-06-26T12:27:58.227Z,4.66
2019-06-26T12:31:28.414Z,4.21
2019-06-26T12:34:58.638Z,4.33
2019-06-26T12:38:28.896Z,5.25
2019-06-26T12:41:59.300Z,5.12
2019-06-26T12:45:29.669Z,4.99
2019-06-26T12:49:00.105Z,4.36
2019-06-26T12:52:30.449Z,5.24
2019-06-26T12:56:00.554Z,5.86
2019-06-26T12:59:30.813Z,4.8
2019-06-26T13:00:16.971Z,6.11
2019-06-26T13:03:47.110Z,5.09
2019-06-26T13:07:17.275Z,4.86
2019-06-26T13:10:50.206Z,5.44
2019-06-26T13:14:20.745Z,4.8
2019-06-26T13:17:50.984Z,6.1
2019-06-26T13:21:21.187Z,4.95
2019-06-26T13:24:51.441Z,5.62
2019-06-26T13:28:21.627Z,5.35
2019-06-26T13:31:51.769Z,4.61
2019-06-26T13:35:24.229Z,4.66
2019-06-26T13:38:54.620Z,5.72
2019-06-26T13:42:24.695Z,4.85
2019-06-26T13:45:58.464Z,5.04
2019-06-26T13:49:28.945Z,5.36
2019-06-26T13:52:59.063Z,5.86
2019-06-26T13:56:29.226Z,6.3
2019-06-26T13:59:59.421Z,4.82
2019-06-26T14:03:29.519Z,5.89
2019-06-26T14:06:59.630Z,5.22
2019-06-26T14:10:29.982Z,4.47
2019-06-26T14:14:00.060Z,5.45
2019-06-26T14:17:30.154Z,5.15
2019-06-26T14:21:00.434Z,4.95
2019-06-26T14:24:30.563Z,4.88
2019-06-26T14:28:00.663Z,4.72
2019-06-26T14:31:30.879Z,5.16
2019-06-26T14:34:38.421Z,6.93
2019-06-26T14:38:08.514Z,6.39
2019-06-26T14:39:41.616Z,5.45
2019-06-26T14:43:11.701Z,5.29
2019-06-26T14:46:41.828Z,5.92
2019-06-26T14:50:27.374Z,6.11
2019-06-26T14:53:57.434Z,5.06
2019-06-26T14:57:27.645Z,4.94
2019-06-26T15:00:16.448Z,5.71
2019-06-26T15:03:46.580Z,6.29
2019-06-26T15:07:16.740Z,4.18
2019-06-26T15:10:46.982Z,4.85
2019-06-26T15:14:17.101Z,5.54
2019-06-26T15:17:47.407Z,4.78
2019-06-26T15:21:17.527Z,5.39
2019-06-26T15:24:47.717Z,5.22
2019-06-26T15:28:17.855Z,5.16
2019-06-26T15:31:48.109Z,5.17
2019-06-26T15:35:19.509Z,4.55
2019-06-26T15:38:49.679Z,4.49
2019-06-26T15:42:19.847Z,5.03
2019-06-26T15:45:50.071Z,5.31
2019-06-26T15:49:22.673Z,4.84
2019-06-26T15:52:52.803Z,4.86
2019-06-26T15:56:23.067Z,5.93
2019-06-26T15:59:53.328Z,4.55
2019-06-26T16:03:23.525Z,4.85
2019-06-26T16:06:53.650Z,4.62
2019-06-26T16:10:23.839Z,4.78
2019-06-26T16:13:54.038Z,5.04
2019-06-26T16:17:49.564Z,4.88
2019-06-26T16:21:19.718Z,3.97
2019-06-26T16:24:49.914Z,4.86
2019-06-26T16:28:20.021Z,5.01
2019-06-26T16:31:50.280Z,5.44
2019-06-26T16:35:20.588Z,5.74
2019-06-26T16:38:50.956Z,6.21
2019-06-26T16:42:21.052Z,5.05
2019-06-26T16:45:51.272Z,5.49
2019-06-26T16:49:21.318Z,5.7
2019-06-26T16:52:51.457Z,4.89
2019-06-26T16:56:21.587Z,5.55
2019-06-26T17:00:05.003Z,4.55
2019-06-26T17:00:16.117Z,6.28
2019-06-26T17:03:46.211Z,5.27
2019-06-26T17:07:16.442Z,5.96
2019-06-26T17:10:46.507Z,5.79
2019-06-26T17:14:16.708Z,5.33
2019-06-26T17:17:46.796Z,4.22
2019-06-26T17:21:16.916Z,4.55
2019-06-26T17:24:46.876Z,4.32
2019-06-26T17:28:17.071Z,5.3
2019-06-26T17:31:47.151Z,4.8
2019-06-26T17:35:17.234Z,4.24
2019-06-26T17:38:47.268Z,4.12
2019-06-26T17:42:17.391Z,5.2
2019-06-26T17:45:47.361Z,5.66
2019-06-26T17:49:17.501Z,6.42
2019-06-26T17:52:47.608Z,6.45
2019-06-26T17:56:19.011Z,5.55
2019-06-26T17:59:49.161Z,5.78
2019-06-26T18:03:19.302Z,5.45
2019-06-26T18:06:49.458Z,6.15
2019-06-26T18:10:19.478Z,4.94
2019-06-26T18:13:49.727Z,5.8
2019-06-26T18:17:22.459Z,6.08
2019-06-26T18:20:57.926Z,6.58
2019-06-26T18:24:28.082Z,5.6
2019-06-26T18:27:58.126Z,5.95
2019-06-26T18:31:30.602Z,5.23
2019-06-26T18:35:00.915Z,7.44
2019-06-26T18:38:30.973Z,6.76
2019-06-26T18:42:01.049Z,7.64
2019-06-26T18:45:31.159Z,7.71
2019-06-26T18:49:02.478Z,7.43
2019-06-26T18:52:32.553Z,9.07
2019-06-26T18:56:02.751Z,6.34
2019-06-26T18:59:32.892Z,7.8
2019-06-26T19:00:16.259Z,7.45
2019-06-26T19:03:46.314Z,7.81
2019-06-26T19:07:16.528Z,6.68
2019-06-26T19:10:46.640Z,7.48
2019-06-26T19:14:18.084Z,7.3
2019-06-26T19:17:48.163Z,7.55
2019-06-26T19:21:18.267Z,7.46
2019-06-26T19:24:48.356Z,8.82
2019-06-26T19:28:23.007Z,8.14
2019-06-26T19:31:53.364Z,8.44
2019-06-26T19:35:23.409Z,7.91
2019-06-26T19:38:53.520Z,7.45
2019-06-26T19:42:23.569Z,7.92
2019-06-26T19:45:53.614Z,7.45
2019-06-26T19:49:24.825Z,7.53
2019-06-26T19:52:54.983Z,7.46
2019-06-26T19:56:25.128Z,7.61
2019-06-26T19:59:55.252Z,6.89
2019-06-26T20:03:25.397Z,7.3
2019-06-26T20:06:55.424Z,8.54
2019-06-26T20:10:25.552Z,6.46
2019-06-26T20:13:55.623Z,6.14
2019-06-26T20:17:25.752Z,6.75
2019-06-26T20:20:55.800Z,6.44
2019-06-26T20:24:25.884Z,7.05
2019-06-26T20:27:57.251Z,7.19
2019-06-26T20:31:27.499Z,6.38
2019-06-26T20:34:57.660Z,6.6
2019-06-26T20:38:27.758Z,6.91
2019-06-26T20:41:57.915Z,6.69
2019-06-26T20:45:28.129Z,6.43
2019-06-26T20:48:58.343Z,6.53
2019-06-26T20:52:28.447Z,6.5
2019-06-26T20:55:59.709Z,7.01
2019-06-26T20:59:29.820Z,6.35
2019-06-26T21:00:16.483Z,7.39
2019-06-26T21:03:46.572Z,6.34
2019-06-26T21:07:16.643Z,6.28
2019-06-26T21:10:46.671Z,6.47
2019-06-26T21:14:16.866Z,6.41
2019-06-26T21:17:46.898Z,5.86
2019-06-26T21:21:16.972Z,6.5
2019-06-26T21:24:47.021Z,6.38
2019-06-26T21:28:17.131Z,6.01
2019-06-26T21:31:47.200Z,6.62
2019-06-26T21:35:17.308Z,7.64
2019-06-26T21:38:47.393Z,6.5
2019-06-26T21:42:17.543Z,7.74
2019-06-26T21:45:47.622Z,7.67
2019-06-26T21:49:17.651Z,6.51
2019-06-26T21:52:47.987Z,7.08
2019-06-26T21:56:18.161Z,6.44
2019-06-26T21:59:48.186Z,7.28
2019-06-26T22:03:18.679Z,6.4
2019-06-26T22:06:48.940Z,7.04
2019-06-26T22:10:19.098Z,6.47
2019-06-26T22:13:49.296Z,8.06
2019-06-26T22:17:19.375Z,5.59
2019-06-26T22:20:49.529Z,6.76
2019-06-26T22:24:19.590Z,7.16
2019-06-26T22:27:49.728Z,6.74
2019-06-26T22:31:19.904Z,5.65
2019-06-26T22:34:50.062Z,5.61
2019-06-26T22:38:20.239Z,5.55
2019-06-26T22:41:50.268Z,7.03
2019-06-26T22:45:20.403Z,5.9
2019-06-26T22:48:50.507Z,6.74
2019-06-26T22:52:20.613Z,6.65
2019-06-26T22:56:03.517Z,6.54
2019-06-26T22:59:37.407Z,5.39
2019-06-26T23:00:17.573Z,7.88
2019-06-26T23:03:47.727Z,5.92
2019-06-26T23:07:17.898Z,5.44
2019-06-26T23:10:48.044Z,6.76
2019-06-26T23:14:18.139Z,5.78
2019-06-26T23:17:48.316Z,5.07
2019-06-26T23:21:18.410Z,5.22
2019-06-26T23:24:48.535Z,5.14
2019-06-26T23:28:18.624Z,7.32
2019-06-26T23:31:48.724Z,5.3
2019-06-26T23:35:18.761Z,4.81
2019-06-26T23:38:48.960Z,5.56
2019-06-26T23:42:19.028Z,5.96
2019-06-26T23:45:49.147Z,5.7
2019-06-26T23:49:19.213Z,6.43
2019-06-26T23:52:49.382Z,6.05
2019-06-26T23:56:19.414Z,5.4
2019-06-26T23:59:49.429Z,6.49
